createdAt,value
2023-04-15T00:00:29.725Z,87312.00
2023-04-15T00:01:29.736Z,87310.00
2023-04-15T00:02:29.876Z,87308.00
2023-04-15T00:03:30.084Z,87310.00
2023-04-15T00:04:29.863Z,87308.00
2023-04-15T00:05:29.748Z,87306.00
2023-04-15T00:06:29.760Z,87306.00
2023-04-15T00:07:29.750Z,87306.00
2023-04-15T00:08:29.757Z,87306.00
2023-04-15T00:09:29.745Z,87306.00
2023-04-15T00:10:29.742Z,87304.00
2023-04-15T00:11:29.751Z,87306.00
2023-04-15T00:12:29.758Z,87306.00
2023-04-15T00:13:29.771Z,87304.00
2023-04-15T00:14:29.779Z,87308.00
2023-04-15T00:15:29.767Z,87308.00
2023-04-15T00:16:29.816Z,87308.00
2023-04-15T00:17:29.810Z,87308.00
2023-04-15T00:18:29.775Z,87306.00
2023-04-15T00:19:29.781Z,87304.00
2023-04-15T00:20:29.779Z,87310.00
2023-04-15T00:21:29.783Z,87308.00
2023-04-15T00:22:29.785Z,87308.00
2023-04-15T00:23:29.788Z,87308.00
2023-04-15T00:24:29.786Z,87308.00
2023-04-15T00:25:29.801Z,87308.00
2023-04-15T00:26:29.849Z,87308.00
2023-04-15T00:27:29.916Z,87310.00
2023-04-15T00:28:29.956Z,87310.00
2023-04-15T00:29:30.014Z,87308.00
2023-04-15T00:30:30.248Z,87308.00
2023-04-15T00:31:30.205Z,87310.00
2023-04-15T00:32:30.203Z,87306.00
2023-04-15T00:33:30.270Z,87308.00
2023-04-15T00:34:30.306Z,87312.00
2023-04-15T00:35:30.374Z,87310.00
2023-04-15T00:36:30.440Z,87308.00
2023-04-15T00:37:30.488Z,87310.00
2023-04-15T00:38:30.553Z,87308.00
2023-04-15T00:39:30.605Z,87308.00
2023-04-15T00:40:30.665Z,87308.00
2023-04-15T00:41:30.724Z,87304.00
2023-04-15T00:42:30.801Z,87304.00
2023-04-15T00:43:30.862Z,87304.00
2023-04-15T00:44:30.909Z,87306.00
2023-04-15T00:45:31.040Z,87306.00
2023-04-15T00:46:30.981Z,87306.00
2023-04-15T00:47:30.990Z,87308.00
2023-04-15T00:48:30.985Z,87306.00
2023-04-15T00:49:30.980Z,87306.00
2023-04-15T00:50:30.986Z,87304.00
2023-04-15T00:51:31.002Z,87304.00
2023-04-15T00:52:30.995Z,87304.00
2023-04-15T00:53:31.013Z,87304.00
2023-04-15T00:54:31.010Z,87304.00
2023-04-15T00:55:31.057Z,87304.00
2023-04-15T00:56:31.105Z,87304.00
2023-04-15T00:57:31.176Z,87302.00
2023-04-15T00:58:31.238Z,87304.00
2023-04-15T00:59:31.304Z,87304.00
2023-04-15T01:00:31.360Z,87304.00
2023-04-15T01:01:31.453Z,87304.00
2023-04-15T01:02:31.712Z,87302.00
2023-04-15T01:03:31.614Z,87304.00
2023-04-15T01:04:31.734Z,87304.00
2023-04-15T01:05:31.661Z,87302.00
2023-04-15T01:06:31.723Z,87300.00
2023-04-15T01:07:31.800Z,87302.00
2023-04-15T01:08:31.894Z,87300.00
2023-04-15T01:09:31.930Z,87302.00
2023-04-15T01:10:32.005Z,87304.00
2023-04-15T01:11:32.060Z,87306.00
2023-04-15T01:12:32.145Z,87304.00
2023-04-15T01:13:32.176Z,87304.00
2023-04-15T01:14:32.253Z,87302.00
2023-04-15T01:15:32.311Z,87302.00
2023-04-15T01:16:32.434Z,87302.00
2023-04-15T01:17:32.505Z,87302.00
2023-04-15T01:18:32.501Z,87302.00
2023-04-15T01:19:32.595Z,87304.00
2023-04-15T01:20:32.631Z,87304.00
2023-04-15T01:21:32.696Z,87306.00
2023-04-15T01:22:32.766Z,87306.00
2023-04-15T01:23:32.842Z,87304.00
2023-04-15T01:24:32.902Z,87304.00
2023-04-15T01:25:32.980Z,87304.00
2023-04-15T01:26:33.037Z,87302.00
2023-04-15T01:27:33.098Z,87300.00
2023-04-15T01:28:33.160Z,87302.00
2023-04-15T01:29:33.233Z,87302.00
2023-04-15T01:30:33.292Z,87300.00
2023-04-15T01:31:33.396Z,87302.00
2023-04-15T01:32:33.472Z,87302.00
2023-04-15T01:33:33.506Z,87302.00
2023-04-15T01:34:35.617Z,87302.00
2023-04-15T01:35:33.620Z,87306.00
2023-04-15T01:36:33.678Z,87306.00
2023-04-15T01:37:33.758Z,87306.00
2023-04-15T01:38:33.897Z,87304.00
2023-04-15T01:39:33.901Z,87304.00
2023-04-15T01:40:33.953Z,87304.00
2023-04-15T01:41:34.029Z,87302.00
2023-04-15T01:42:34.096Z,87302.00
2023-04-15T01:43:34.158Z,87302.00
2023-04-15T01:44:34.240Z,87302.00
2023-04-15T01:45:34.307Z,87302.00
2023-04-15T01:46:34.411Z,87302.00
2023-04-15T01:47:34.489Z,87302.00
2023-04-15T01:48:34.518Z,87300.00
2023-04-15T01:49:34.603Z,87302.00
2023-04-15T01:50:34.672Z,87300.00
2023-04-15T01:51:34.743Z,87300.00
2023-04-15T01:52:34.816Z,87300.00
2023-04-15T01:53:34.899Z,87302.00
2023-04-15T01:54:34.974Z,87300.00
2023-04-15T01:55:35.052Z,87302.00
2023-04-15T01:56:35.115Z,87304.00
2023-04-15T01:57:35.187Z,87304.00
2023-04-15T01:58:35.258Z,87306.00
2023-04-15T01:59:35.322Z,87304.00
2023-04-15T02:00:35.451Z,87302.00
2023-04-15T02:01:35.458Z,87304.00
2023-04-15T02:02:35.687Z,87304.00
2023-04-15T02:03:35.652Z,87300.00
2023-04-15T02:04:35.673Z,87298.00
2023-04-15T02:05:35.743Z,87298.00
2023-04-15T02:06:35.812Z,87298.00
2023-04-15T02:07:35.885Z,87294.00
2023-04-15T02:08:35.966Z,87296.00
2023-04-15T02:09:36.048Z,87296.00
2023-04-15T02:10:36.111Z,87296.00
2023-04-15T02:11:36.165Z,87296.00
2023-04-15T02:12:36.220Z,87296.00
2023-04-15T02:13:36.333Z,87294.00
2023-04-15T02:14:36.338Z,87296.00
2023-04-15T02:15:36.392Z,87294.00
2023-04-15T02:16:36.540Z,87296.00
2023-04-15T02:17:36.570Z,87298.00
2023-04-15T02:18:36.593Z,87298.00
2023-04-15T02:19:36.681Z,87298.00
2023-04-15T02:20:36.723Z,87300.00
2023-04-15T02:21:36.802Z,87302.00
2023-04-15T02:22:36.874Z,87302.00
2023-04-15T02:23:36.943Z,87304.00
2023-04-15T02:24:37.005Z,87300.00
2023-04-15T02:25:37.082Z,87302.00
2023-04-15T02:26:37.140Z,87298.00
2023-04-15T02:27:37.207Z,87300.00
2023-04-15T02:28:37.260Z,87300.00
2023-04-15T02:29:37.318Z,87294.00
2023-04-15T02:30:37.362Z,87298.00
2023-04-15T02:31:37.442Z,87298.00
2023-04-15T02:32:37.522Z,87300.00
2023-04-15T02:33:37.545Z,87294.00
2023-04-15T02:34:37.632Z,87296.00
2023-04-15T02:35:37.699Z,87296.00
2023-04-15T02:36:37.764Z,87292.00
2023-04-15T02:37:37.839Z,87296.00
2023-04-15T02:38:37.916Z,87296.00
2023-04-15T02:39:37.990Z,87298.00
2023-04-15T02:40:38.049Z,87298.00
2023-04-15T02:41:38.116Z,87300.00
2023-04-15T02:42:38.197Z,87300.00
2023-04-15T02:43:38.265Z,87302.00
2023-04-15T02:44:38.374Z,87302.00
2023-04-15T02:45:38.473Z,87302.00
2023-04-15T02:46:38.503Z,87300.00
2023-04-15T02:47:38.585Z,87302.00
2023-04-15T02:48:38.625Z,87298.00
2023-04-15T02:49:38.690Z,87300.00
2023-04-15T02:50:38.779Z,87298.00
2023-04-15T02:51:38.848Z,87300.00
2023-04-15T02:52:38.920Z,87298.00
2023-04-15T02:53:38.997Z,87298.00
2023-04-15T02:54:39.073Z,87296.00
2023-04-15T02:55:39.128Z,87300.00
2023-04-15T02:56:39.205Z,87300.00
2023-04-15T02:57:39.294Z,87298.00
2023-04-15T02:58:39.347Z,87300.00
2023-04-15T02:59:39.439Z,87300.00
2023-04-15T03:00:39.499Z,87294.00
2023-04-15T03:01:39.637Z,87294.00
2023-04-15T03:02:39.709Z,87296.00
2023-04-15T03:03:39.675Z,87294.00
2023-04-15T03:04:39.620Z,87292.00
2023-04-15T03:05:39.628Z,87292.00
2023-04-15T03:06:39.620Z,87290.00
2023-04-15T03:07:39.623Z,87290.00
2023-04-15T03:08:39.643Z,87286.00
2023-04-15T03:09:39.648Z,87286.00
2023-04-15T03:10:39.666Z,87284.00
2023-04-15T03:11:39.666Z,87284.00
2023-04-15T03:12:39.664Z,87284.00
2023-04-15T03:13:39.676Z,87284.00
2023-04-15T03:14:39.670Z,87288.00
2023-04-15T03:15:39.690Z,87286.00
2023-04-15T03:16:39.684Z,87286.00
2023-04-15T03:17:39.729Z,87284.00
2023-04-15T03:18:39.742Z,87286.00
2023-04-15T03:19:39.812Z,87288.00
2023-04-15T03:20:39.948Z,87284.00
2023-04-15T03:21:39.972Z,87286.00
2023-04-15T03:22:40.034Z,87284.00
2023-04-15T03:23:40.088Z,87284.00
2023-04-15T03:24:40.133Z,87282.00
2023-04-15T03:25:40.208Z,87284.00
2023-04-15T03:26:40.277Z,87286.00
2023-04-15T03:27:40.305Z,87286.00
2023-04-15T03:28:40.315Z,87284.00
2023-04-15T03:29:40.396Z,87282.00
2023-04-15T03:30:40.425Z,87280.00
2023-04-15T03:31:40.520Z,87282.00
2023-04-15T03:32:40.527Z,87280.00
2023-04-15T03:33:40.491Z,87284.00
2023-04-15T03:34:40.493Z,87284.00
2023-04-15T03:35:40.540Z,87284.00
2023-04-15T03:36:40.539Z,87280.00
2023-04-15T03:37:40.533Z,87284.00
2023-04-15T03:38:40.537Z,87282.00
2023-04-15T03:39:40.547Z,87286.00
2023-04-15T03:40:40.577Z,87278.00
2023-04-15T03:41:40.580Z,87282.00
2023-04-15T03:42:40.608Z,87286.00
2023-04-15T03:43:40.604Z,87284.00
2023-04-15T03:44:40.613Z,87284.00
2023-04-15T03:45:40.612Z,87288.00
2023-04-15T03:46:40.668Z,87284.00
2023-04-15T03:47:40.765Z,87282.00
2023-04-15T03:48:40.616Z,87282.00
2023-04-15T03:49:40.615Z,87282.00
2023-04-15T03:50:40.624Z,87282.00
2023-04-15T03:51:40.638Z,87284.00
2023-04-15T03:52:40.635Z,87284.00
2023-04-15T03:53:40.624Z,87282.00
2023-04-15T03:54:40.638Z,87284.00
2023-04-15T03:55:40.630Z,87286.00
2023-04-15T03:56:40.632Z,87286.00
2023-04-15T03:57:40.634Z,87286.00
2023-04-15T03:58:40.633Z,87286.00
2023-04-15T03:59:40.632Z,87288.00
2023-04-15T04:00:40.652Z,87290.00
2023-04-15T04:01:40.656Z,87288.00
2023-04-15T04:02:40.915Z,87292.00
2023-04-15T04:03:40.760Z,87292.00
2023-04-15T04:04:40.700Z,87292.00
2023-04-15T04:05:40.664Z,87290.00
2023-04-15T04:06:40.675Z,87292.00
2023-04-15T04:07:40.685Z,87290.00
2023-04-15T04:08:40.714Z,87292.00
2023-04-15T04:09:40.741Z,87286.00
2023-04-15T04:10:40.800Z,87288.00
2023-04-15T04:11:40.811Z,87290.00
2023-04-15T04:12:40.868Z,87286.00
2023-04-15T04:13:40.899Z,87288.00
2023-04-15T04:14:40.948Z,87290.00
2023-04-15T04:15:40.975Z,87290.00
2023-04-15T04:16:41.033Z,87288.00
2023-04-15T04:17:41.065Z,87290.00
2023-04-15T04:18:41.054Z,87292.00
2023-04-15T04:19:41.089Z,87292.00
2023-04-15T04:20:41.125Z,87292.00
2023-04-15T04:21:41.150Z,87292.00
2023-04-15T04:22:41.185Z,87290.00
2023-04-15T04:23:41.220Z,87292.00
2023-04-15T04:24:41.263Z,87292.00
2023-04-15T04:25:41.293Z,87290.00
2023-04-15T04:26:41.325Z,87294.00
2023-04-15T04:27:41.361Z,87292.00
2023-04-15T04:28:41.398Z,87292.00
2023-04-15T04:29:41.434Z,87292.00
2023-04-15T04:30:41.480Z,87294.00
2023-04-15T04:31:41.587Z,87296.00
2023-04-15T04:32:41.583Z,87294.00
2023-04-15T04:33:41.584Z,87296.00
2023-04-15T04:34:41.649Z,87296.00
2023-04-15T04:35:41.661Z,87298.00
2023-04-15T04:36:41.700Z,87298.00
2023-04-15T04:37:41.748Z,87302.00
2023-04-15T04:38:41.785Z,87302.00
2023-04-15T04:39:41.834Z,87304.00
2023-04-15T04:40:41.861Z,87302.00
2023-04-15T04:41:41.895Z,87298.00
2023-04-15T04:42:41.942Z,87302.00
2023-04-15T04:43:41.993Z,87304.00
2023-04-15T04:44:42.031Z,87304.00
2023-04-15T04:45:42.119Z,87304.00
2023-04-15T04:46:42.115Z,87306.00
2023-04-15T04:47:42.236Z,87308.00
2023-04-15T04:48:42.224Z,87310.00
2023-04-15T04:49:42.311Z,87310.00
2023-04-15T04:50:42.332Z,87312.00
2023-04-15T04:51:42.371Z,87312.00
2023-04-15T04:52:42.425Z,87316.00
2023-04-15T04:53:42.474Z,87314.00
2023-04-15T04:54:42.532Z,87312.00
2023-04-15T04:55:42.598Z,87314.00
2023-04-15T04:56:42.631Z,87318.00
2023-04-15T04:57:42.697Z,87316.00
2023-04-15T04:58:42.747Z,87318.00
2023-04-15T04:59:42.773Z,87321.00
2023-04-15T05:00:42.779Z,87323.00
2023-04-15T05:01:42.892Z,87320.00
2023-04-15T05:02:42.877Z,87318.00
2023-04-15T05:03:42.899Z,87320.00
2023-04-15T05:04:42.796Z,87320.00
2023-04-15T05:05:42.805Z,87320.00
2023-04-15T05:06:42.828Z,87320.00
2023-04-15T05:07:42.834Z,87323.00
2023-04-15T05:08:42.829Z,87323.00
2023-04-15T05:09:42.841Z,87323.00
2023-04-15T05:10:42.844Z,87325.00
2023-04-15T05:11:42.891Z,87320.00
2023-04-15T05:12:42.877Z,87321.00
2023-04-15T05:13:42.872Z,87320.00
2023-04-15T05:14:42.884Z,87321.00
2023-04-15T05:15:42.969Z,87320.00
2023-04-15T05:16:42.917Z,87320.00
2023-04-15T05:17:42.935Z,87318.00
2023-04-15T05:18:42.989Z,87320.00
2023-04-15T05:19:43.076Z,87320.00
2023-04-15T05:20:43.135Z,87318.00
2023-04-15T05:21:43.179Z,87318.00
2023-04-15T05:22:43.239Z,87318.00
2023-04-15T05:23:43.292Z,87316.00
2023-04-15T05:24:43.369Z,87318.00
2023-04-15T05:25:43.419Z,87314.00
2023-04-15T05:26:43.485Z,87316.00
2023-04-15T05:27:43.518Z,87314.00
2023-04-15T05:28:43.511Z,87316.00
2023-04-15T05:29:43.514Z,87316.00
2023-04-15T05:30:43.533Z,87314.00
2023-04-15T05:31:43.571Z,87316.00
2023-04-15T05:32:43.634Z,87316.00
2023-04-15T05:33:43.551Z,87318.00
2023-04-15T05:34:43.564Z,87318.00
2023-04-15T05:35:43.565Z,87318.00
2023-04-15T05:36:43.604Z,87320.00
2023-04-15T05:37:43.673Z,87320.00
2023-04-15T05:38:43.670Z,87321.00
2023-04-15T05:39:43.679Z,87321.00
2023-04-15T05:40:43.692Z,87323.00
2023-04-15T05:41:43.716Z,87323.00
2023-04-15T05:42:43.716Z,87325.00
2023-04-15T05:43:43.741Z,87325.00
2023-04-15T05:44:43.742Z,87323.00
2023-04-15T05:45:43.747Z,87325.00
2023-04-15T05:46:43.864Z,87325.00
2023-04-15T05:47:43.904Z,87329.00
2023-04-15T05:48:43.937Z,87327.00
2023-04-15T05:49:43.984Z,87327.00
2023-04-15T05:50:44.078Z,87327.00
2023-04-15T05:51:44.141Z,87327.00
2023-04-15T05:52:44.198Z,87329.00
2023-04-15T05:53:44.272Z,87327.00
2023-04-15T05:54:44.339Z,87327.00
2023-04-15T05:55:44.406Z,87327.00
2023-04-15T05:56:44.479Z,87327.00
2023-04-15T05:57:44.529Z,87325.00
2023-04-15T05:58:44.598Z,87329.00
2023-04-15T05:59:44.663Z,87331.00
2023-04-15T06:00:44.732Z,87329.00
2023-04-15T06:01:44.809Z,87329.00
2023-04-15T06:02:45.031Z,87331.00
2023-04-15T06:03:45.056Z,87329.00
2023-04-15T06:04:45.087Z,87331.00
2023-04-15T06:05:45.113Z,87331.00
2023-04-15T06:06:45.187Z,87335.00
2023-04-15T06:07:46.700Z,87335.00
2023-04-15T06:08:45.251Z,87333.00
2023-04-15T06:09:45.259Z,87333.00
2023-04-15T06:10:45.280Z,87331.00
2023-04-15T06:11:45.294Z,87333.00
2023-04-15T06:12:45.313Z,87335.00
2023-04-15T06:13:45.324Z,87335.00
2023-04-15T06:14:45.331Z,87335.00
2023-04-15T06:15:45.340Z,87333.00
2023-04-15T06:16:45.363Z,87333.00
2023-04-15T06:17:45.372Z,87333.00
2023-04-15T06:18:45.418Z,87331.00
2023-04-15T06:19:45.511Z,87333.00
2023-04-15T06:20:45.560Z,87335.00
2023-04-15T06:21:45.627Z,87333.00
2023-04-15T06:22:45.691Z,87333.00
2023-04-15T06:23:45.781Z,87333.00
2023-04-15T06:24:45.838Z,87333.00
2023-04-15T06:25:45.925Z,87331.00
2023-04-15T06:26:46.006Z,87333.00
2023-04-15T06:27:46.062Z,87329.00
2023-04-15T06:28:46.142Z,87333.00
2023-04-15T06:29:46.231Z,87333.00
2023-04-15T06:30:46.268Z,87333.00
2023-04-15T06:31:46.394Z,87333.00
2023-04-15T06:32:46.445Z,87331.00
2023-04-15T06:33:46.482Z,87335.00
2023-04-15T06:34:46.548Z,87333.00
2023-04-15T06:35:46.618Z,87335.00
2023-04-15T06:36:46.683Z,87333.00
2023-04-15T06:37:46.762Z,87333.00
2023-04-15T06:38:46.808Z,87335.00
2023-04-15T06:39:46.871Z,87335.00
2023-04-15T06:40:46.940Z,87335.00
2023-04-15T06:41:47.008Z,87333.00
2023-04-15T06:42:47.081Z,87335.00
2023-04-15T06:43:47.128Z,87335.00
2023-04-15T06:44:47.153Z,87331.00
2023-04-15T06:45:47.210Z,87333.00
2023-04-15T06:46:47.159Z,87333.00
2023-04-15T06:47:47.158Z,87331.00
2023-04-15T06:48:47.155Z,87331.00
2023-04-15T06:49:47.163Z,87329.00
2023-04-15T06:50:47.184Z,87327.00
2023-04-15T06:51:47.182Z,87329.00
2023-04-15T06:52:47.189Z,87331.00
2023-04-15T06:53:47.192Z,87329.00
2023-04-15T06:54:47.240Z,87329.00
2023-04-15T06:55:47.308Z,87331.00
2023-04-15T06:56:47.364Z,87331.00
2023-04-15T06:57:47.426Z,87333.00
2023-04-15T06:58:47.476Z,87335.00
2023-04-15T06:59:47.538Z,87335.00
2023-04-15T07:00:47.623Z,87335.00
2023-04-15T07:01:47.704Z,87339.00
2023-04-15T07:02:47.876Z,87337.00
2023-04-15T07:03:47.817Z,87337.00
2023-04-15T07:04:47.857Z,87337.00
2023-04-15T07:05:47.916Z,87337.00
2023-04-15T07:06:47.972Z,87335.00
2023-04-15T07:07:48.029Z,87337.00
2023-04-15T07:08:48.074Z,87335.00
2023-04-15T07:09:48.138Z,87335.00
2023-04-15T07:10:48.218Z,87333.00
2023-04-15T07:11:48.249Z,87337.00
2023-04-15T07:12:48.311Z,87331.00
2023-04-15T07:13:48.354Z,87335.00
2023-04-15T07:14:48.410Z,87329.00
2023-04-15T07:15:48.459Z,87333.00
2023-04-15T07:16:48.608Z,87333.00
2023-04-15T07:17:48.603Z,87333.00
2023-04-15T07:18:48.629Z,87333.00
2023-04-15T07:19:48.684Z,87335.00
2023-04-15T07:20:48.739Z,87329.00
2023-04-15T07:21:48.796Z,87333.00
2023-04-15T07:22:48.833Z,87333.00
2023-04-15T07:23:48.915Z,87329.00
2023-04-15T07:24:48.888Z,87331.00
2023-04-15T07:25:48.902Z,87331.00
2023-04-15T07:26:48.910Z,87331.00
2023-04-15T07:27:48.919Z,87329.00
2023-04-15T07:28:48.920Z,87331.00
2023-04-15T07:29:48.922Z,87327.00
2023-04-15T07:30:48.968Z,87331.00
2023-04-15T07:31:48.949Z,87331.00
2023-04-15T07:32:48.974Z,87329.00
2023-04-15T07:33:48.951Z,87329.00
2023-04-15T07:34:48.940Z,87329.00
2023-04-15T07:35:48.951Z,87331.00
2023-04-15T07:36:48.955Z,87331.00
2023-04-15T07:37:48.950Z,87329.00
2023-04-15T07:38:48.955Z,87329.00
2023-04-15T07:39:48.958Z,87329.00
2023-04-15T07:40:48.981Z,87327.00
2023-04-15T07:41:49.036Z,87329.00
2023-04-15T07:42:49.058Z,87327.00
2023-04-15T07:43:49.083Z,87327.00
2023-04-15T07:44:49.108Z,87327.00
2023-04-15T07:45:49.182Z,87325.00
2023-04-15T07:46:49.185Z,87325.00
2023-04-15T07:47:49.247Z,87327.00
2023-04-15T07:48:49.265Z,87327.00
2023-04-15T07:49:49.311Z,87327.00
2023-04-15T07:50:49.318Z,87325.00
2023-04-15T07:51:49.362Z,87325.00
2023-04-15T07:52:49.409Z,87323.00
2023-04-15T07:53:49.442Z,87325.00
2023-04-15T07:54:49.483Z,87321.00
2023-04-15T07:55:49.518Z,87323.00
2023-04-15T07:56:49.547Z,87325.00
2023-04-15T07:57:49.591Z,87323.00
2023-04-15T07:58:49.598Z,87323.00
2023-04-15T07:59:49.626Z,87323.00
2023-04-15T08:00:49.701Z,87321.00
2023-04-15T08:01:49.693Z,87320.00
2023-04-15T08:02:49.918Z,87325.00
2023-04-15T08:03:49.832Z,87327.00
2023-04-15T08:04:49.809Z,87325.00
2023-04-15T08:05:49.774Z,87327.00
2023-04-15T08:06:49.809Z,87325.00
2023-04-15T08:07:49.840Z,87327.00
2023-04-15T08:08:49.850Z,87327.00
2023-04-15T08:09:49.878Z,87323.00
2023-04-15T08:10:51.400Z,87323.00
2023-04-15T08:11:50.102Z,87323.00
2023-04-15T08:12:50.143Z,87323.00
2023-04-15T08:13:50.155Z,87323.00
2023-04-15T08:14:50.157Z,87321.00
2023-04-15T08:15:50.230Z,87321.00
2023-04-15T08:16:50.212Z,87320.00
2023-04-15T08:17:50.269Z,87316.00
2023-04-15T08:18:50.234Z,87316.00
2023-04-15T08:19:50.263Z,87320.00
2023-04-15T08:20:50.253Z,87318.00
2023-04-15T08:21:50.285Z,87318.00
2023-04-15T08:22:50.290Z,87318.00
2023-04-15T08:23:50.294Z,87318.00
2023-04-15T08:24:50.294Z,87316.00
2023-04-15T08:25:50.309Z,87318.00
2023-04-15T08:26:50.321Z,87320.00
2023-04-15T08:27:50.330Z,87318.00
2023-04-15T08:28:50.348Z,87318.00
2023-04-15T08:29:50.369Z,87320.00
2023-04-15T08:30:50.381Z,87320.00
2023-04-15T08:31:50.424Z,87320.00
2023-04-15T08:32:50.421Z,87320.00
2023-04-15T08:33:50.418Z,87318.00
2023-04-15T08:34:50.425Z,87321.00
2023-04-15T08:35:50.440Z,87316.00
2023-04-15T08:36:50.459Z,87320.00
2023-04-15T08:37:50.463Z,87321.00
2023-04-15T08:38:50.487Z,87321.00
2023-04-15T08:39:50.471Z,87320.00
2023-04-15T08:40:50.475Z,87321.00
2023-04-15T08:41:50.483Z,87318.00
2023-04-15T08:42:50.502Z,87320.00
2023-04-15T08:43:50.478Z,87321.00
2023-04-15T08:44:50.496Z,87321.00
2023-04-15T08:45:50.500Z,87321.00
2023-04-15T08:46:50.559Z,87320.00
2023-04-15T08:47:50.675Z,87320.00
2023-04-15T08:48:50.624Z,87320.00
2023-04-15T08:49:50.672Z,87318.00
2023-04-15T08:50:50.716Z,87316.00
2023-04-15T08:51:50.787Z,87316.00
2023-04-15T08:52:50.851Z,87314.00
2023-04-15T08:53:50.837Z,87310.00
2023-04-15T08:54:50.844Z,87310.00
2023-04-15T08:55:50.847Z,87312.00
2023-04-15T08:56:50.872Z,87318.00
2023-04-15T08:57:50.830Z,87318.00
2023-04-15T08:58:50.822Z,87312.00
2023-04-15T08:59:50.823Z,87314.00
2023-04-15T09:00:50.822Z,87321.00
2023-04-15T09:01:50.858Z,87320.00
2023-04-15T09:02:50.971Z,87318.00
2023-04-15T09:03:51.005Z,87318.00
2023-04-15T09:04:50.800Z,87316.00
2023-04-15T09:05:52.700Z,87312.00
2023-04-15T09:06:50.786Z,87312.00
2023-04-15T09:07:50.837Z,87308.00
2023-04-15T09:08:50.775Z,87314.00
2023-04-15T09:09:50.762Z,87312.00
2023-04-15T09:10:50.748Z,87314.00
2023-04-15T09:11:50.799Z,87312.00
2023-04-15T09:12:50.852Z,87310.00
2023-04-15T09:13:50.901Z,87316.00
2023-04-15T09:14:50.946Z,87318.00
2023-04-15T09:15:51.009Z,87310.00
2023-04-15T09:16:51.084Z,87308.00
2023-04-15T09:17:51.143Z,87310.00
2023-04-15T09:18:51.168Z,87310.00
2023-04-15T09:19:51.189Z,87310.00
2023-04-15T09:20:51.228Z,87308.00
2023-04-15T09:21:51.261Z,87306.00
2023-04-15T09:22:51.296Z,87304.00
2023-04-15T09:23:51.328Z,87308.00
2023-04-15T09:24:51.344Z,87302.00
2023-04-15T09:25:51.365Z,87300.00
2023-04-15T09:26:51.382Z,87302.00
2023-04-15T09:27:51.406Z,87302.00
2023-04-15T09:28:51.420Z,87304.00
2023-04-15T09:29:51.428Z,87300.00
2023-04-15T09:30:51.452Z,87300.00
2023-04-15T09:31:51.448Z,87306.00
2023-04-15T09:32:51.473Z,87308.00
2023-04-15T09:33:51.433Z,87308.00
2023-04-15T09:34:51.407Z,87304.00
2023-04-15T09:35:51.394Z,87298.00
2023-04-15T09:36:51.381Z,87302.00
2023-04-15T09:37:51.376Z,87298.00
2023-04-15T09:38:51.376Z,87296.00
2023-04-15T09:39:51.356Z,87298.00
2023-04-15T09:40:51.340Z,87300.00
2023-04-15T09:41:51.320Z,87300.00
2023-04-15T09:42:51.312Z,87302.00
2023-04-15T09:43:51.295Z,87294.00
2023-04-15T09:44:51.281Z,87300.00
2023-04-15T09:45:51.295Z,87300.00
2023-04-15T09:46:51.271Z,87300.00
2023-04-15T09:47:51.304Z,87302.00
2023-04-15T09:48:51.227Z,87302.00
2023-04-15T09:49:51.262Z,87298.00
2023-04-15T09:50:51.209Z,87294.00
2023-04-15T09:52:04.084Z,87300.00
2023-04-15T09:52:52.197Z,87296.00
2023-04-15T09:53:51.181Z,87294.00
2023-04-15T09:54:51.171Z,87298.00
2023-04-15T09:55:51.163Z,87296.00
2023-04-15T09:56:51.154Z,87302.00
2023-04-15T09:57:51.122Z,87300.00
2023-04-15T09:58:51.126Z,87300.00
2023-04-15T09:59:51.122Z,87300.00
2023-04-15T10:00:51.132Z,87302.00
2023-04-15T10:01:51.182Z,87298.00
2023-04-15T10:02:51.127Z,87300.00
2023-04-15T10:03:51.140Z,87296.00
2023-04-15T10:04:51.077Z,87294.00
2023-04-15T10:05:51.066Z,87298.00
2023-04-15T10:06:51.045Z,87298.00
2023-04-15T10:07:51.037Z,87296.00
2023-04-15T10:08:51.061Z,87302.00
2023-04-15T10:09:51.039Z,87296.00
2023-04-15T10:10:51.020Z,87298.00
2023-04-15T10:11:51.068Z,87292.00
2023-04-15T10:12:51.093Z,87298.00
2023-04-15T10:13:51.150Z,87300.00
2023-04-15T10:14:51.175Z,87298.00
2023-04-15T10:15:51.238Z,87300.00
2023-04-15T10:16:51.240Z,87300.00
2023-04-15T10:17:51.459Z,87296.00
2023-04-15T10:18:51.401Z,87300.00
2023-04-15T10:19:51.384Z,87298.00
2023-04-15T10:20:51.437Z,87296.00
2023-04-15T10:21:51.477Z,87298.00
2023-04-15T10:22:51.535Z,87306.00
2023-04-15T10:23:51.586Z,87306.00
2023-04-15T10:24:51.614Z,87306.00
2023-04-15T10:25:51.666Z,87304.00
2023-04-15T10:26:51.694Z,87302.00
2023-04-15T10:27:51.743Z,87302.00
2023-04-15T10:28:51.803Z,87304.00
2023-04-15T10:29:51.853Z,87302.00
2023-04-15T10:30:51.905Z,87300.00
2023-04-15T10:31:52.001Z,87300.00
2023-04-15T10:32:52.025Z,87302.00
2023-04-15T10:33:52.036Z,87300.00
2023-04-15T10:34:54.220Z,87300.00
2023-04-15T10:35:52.119Z,87302.00
2023-04-15T10:36:52.163Z,87306.00
2023-04-15T10:37:52.156Z,87308.00
2023-04-15T10:38:52.152Z,87308.00
2023-04-15T10:39:52.142Z,87306.00
2023-04-15T10:40:52.122Z,87306.00
2023-04-15T10:41:52.114Z,87310.00
2023-04-15T10:42:52.104Z,87308.00
2023-04-15T10:43:52.085Z,87310.00
2023-04-15T10:44:52.096Z,87310.00
2023-04-15T10:45:52.073Z,87308.00
2023-04-15T10:46:52.139Z,87312.00
2023-04-15T10:47:52.083Z,87310.00
2023-04-15T10:48:52.061Z,87314.00
2023-04-15T10:49:52.066Z,87314.00
2023-04-15T10:50:52.052Z,87316.00
2023-04-15T10:51:52.056Z,87314.00
2023-04-15T10:52:52.030Z,87318.00
2023-04-15T10:53:52.021Z,87316.00
2023-04-15T10:54:52.020Z,87320.00
2023-04-15T10:55:52.000Z,87320.00
2023-04-15T10:56:51.994Z,87320.00
2023-04-15T10:57:51.972Z,87318.00
2023-04-15T10:58:51.962Z,87320.00
2023-04-15T10:59:51.966Z,87320.00
2023-04-15T11:00:51.930Z,87316.00
2023-04-15T11:01:52.094Z,87316.00
2023-04-15T11:02:52.034Z,87314.00
2023-04-15T11:03:52.186Z,87314.00
2023-04-15T11:04:52.046Z,87310.00
2023-04-15T11:05:52.043Z,87312.00
2023-04-15T11:06:52.081Z,87318.00
2023-04-15T11:07:52.113Z,87314.00
2023-04-15T11:08:52.176Z,87314.00
2023-04-15T11:09:52.199Z,87314.00
2023-04-15T11:10:52.226Z,87316.00
2023-04-15T11:11:52.266Z,87316.00
2023-04-15T11:12:52.295Z,87314.00
2023-04-15T11:13:52.324Z,87314.00
2023-04-15T11:14:52.373Z,87316.00
2023-04-15T11:15:52.417Z,87316.00
2023-04-15T11:16:52.500Z,87316.00
2023-04-15T11:17:52.533Z,87310.00
2023-04-15T11:18:52.524Z,87312.00
2023-04-15T11:19:52.570Z,87310.00
2023-04-15T11:20:52.625Z,87312.00
2023-04-15T11:21:52.643Z,87314.00
2023-04-15T11:22:52.681Z,87318.00
2023-04-15T11:23:53.669Z,87320.00
2023-04-15T11:24:52.656Z,87318.00
2023-04-15T11:25:52.637Z,87316.00
2023-04-15T11:26:52.621Z,87314.00
2023-04-15T11:27:52.608Z,87316.00
2023-04-15T11:28:52.608Z,87312.00
2023-04-15T11:29:52.629Z,87310.00
2023-04-15T11:30:52.597Z,87314.00
2023-04-15T11:31:52.650Z,87310.00
2023-04-15T11:32:52.584Z,87310.00
2023-04-15T11:33:52.549Z,87310.00
2023-04-15T11:34:52.541Z,87312.00
2023-04-15T11:35:52.536Z,87314.00
2023-04-15T11:36:52.534Z,87310.00
2023-04-15T11:37:52.516Z,87316.00
2023-04-15T11:38:52.524Z,87318.00
2023-04-15T11:39:52.584Z,87321.00
2023-04-15T11:40:52.621Z,87318.00
2023-04-15T11:41:52.648Z,87316.00
2023-04-15T11:42:52.682Z,87316.00
2023-04-15T11:43:52.729Z,87314.00
2023-04-15T11:44:52.752Z,87318.00